00:59
Airports
History
Links
Donate
Help keep this website running!
PayPal
Bitcoin
Information on this page is community maintained and may be outdated or inaccurate and is intended for reference only or PC simulator navigating.
Always use approved charts for navigating.
EDCO
OBERMEHLER SCHLOTHEIM
OBERMEHLER SCHLOTHEIM (EDCO)
Obermehler, Thüringen, Germany (99996)
(U)
Lat/Lng:51° 16' 3.6" N / 10° 38' 5.4" E
51.267667 / 10.634832
Elevation:909'ft 277mMSL
ID / ICAO:EDCO
Runways:1
Longest:(11-29) 1,448.4m 4,752ft Asphalt
Distance To
Airport ID:
Airport Radio Frequencies
Tower: 125.8, 122.9
Nearby VORs <50NM
Nearby NDBs
Nearby WeatherUpdated 05-23-17 00:50 GMT
Nearby weather at EDDE, Erfurt located 24.3 nautical miles from EDCO
Altimeter: 30.03
Visibility: 6.2 statute miles
Wind: 7 knots (210°)
Temp: 8°c 46°f
Humidity: 93.4%

METAR: EDDE 230050Z 21007KT CAVOK 08/07 Q1017

(Powered by phpweather)
Runway 11 / 29
Dimensions:1448.4 x 29.9m 4752' x 98'ft
Surface:Asphalt
Runway 11 [A]Runway 29 [B]
Heading:109°TH 289°TH
Lat:
Lng:
51° 16' 11.51"N
10° 37' 30.19"E
51° 15' 55.69"N
10° 38' 40.6"E
User Notes and Comments
Google Map
Nearby Airports
(U) EISENACH KINDEL 20.2 NM
EDGE SSW 199°
(C) BAD FRANKENHAUSEN 23.1 NM
EDOF ENE 71°
(C) Erfurt 24.3 NM
EDDE (WX) SE 144°
(C) SOEMMERDA-DERMSDORF 24.6 NM
EDBS E 101°
(U) ALLSTEDT 35.5 NM
EDBT ENE 77°
4 Northeim 39.7 NM
EDVN NW 319°
(U) Ballenstedt 41.6 NM
EDCB NE 37°
VFR Chart
Flight Planning at SkyVector.com